createdAt,value
2019-03-11T00:04:38.633Z,1002.57
2019-03-11T00:09:39.067Z,1002.65
2019-03-11T00:14:39.712Z,1002.81
2019-03-11T00:19:40.364Z,1002.78
2019-03-11T00:24:40.805Z,1002.85
2019-03-11T00:29:41.240Z,1002.84
2019-03-11T00:34:41.891Z,1002.73
2019-03-11T00:39:42.348Z,1002.54
2019-03-11T00:44:42.788Z,1002.63
2019-03-11T00:49:43.444Z,1002.64
2019-03-11T00:54:44.078Z,1002.76
2019-03-11T00:59:44.729Z,1002.77
2019-03-11T01:04:45.175Z,1002.66
2019-03-11T01:09:45.879Z,1002.65
2019-03-11T01:14:46.302Z,1002.52
2019-03-11T01:19:46.717Z,1002.38
2019-03-11T01:24:47.160Z,1002.19
2019-03-11T01:29:47.618Z,1002.33
2019-03-11T01:34:48.105Z,1002.23
2019-03-11T01:39:48.720Z,1002.29
2019-03-11T01:44:49.149Z,1002.28
2019-03-11T01:49:49.583Z,1002.36
2019-03-11T01:54:50.020Z,1002.31
2019-03-11T01:59:50.524Z,1002.14
2019-03-11T02:04:50.915Z,1002.08
2019-03-11T02:09:51.357Z,1002.14
2019-03-11T02:14:51.804Z,1002.07
2019-03-11T02:19:52.236Z,1002.01
2019-03-11T02:24:52.705Z,1001.88
2019-03-11T02:29:53.132Z,1001.92
2019-03-11T02:34:53.569Z,1002.05
2019-03-11T02:39:54.027Z,1002.05
2019-03-11T02:44:54.456Z,1002.04
2019-03-11T02:49:54.962Z,1001.96
2019-03-11T02:54:55.363Z,1002.04
2019-03-11T02:59:56.000Z,1001.95
2019-03-11T03:04:56.468Z,1001.98
2019-03-11T03:09:56.975Z,1002.02
2019-03-11T03:14:57.529Z,1001.91
2019-03-11T03:19:57.994Z,1002.01
2019-03-11T03:24:58.418Z,1002.10
2019-03-11T03:29:58.861Z,1002.03
2019-03-11T03:34:59.328Z,1002.11
2019-03-11T03:39:59.819Z,1002.17
2019-03-11T03:45:00.473Z,1002.04
2019-03-11T03:50:01.068Z,1002.02
2019-03-11T03:55:01.489Z,1002.06
2019-03-11T04:00:02.140Z,1002.04
2019-03-11T04:05:02.598Z,1002.06
2019-03-11T04:10:03.039Z,1002.13
2019-03-11T04:15:03.541Z,1002.14
2019-03-11T04:20:04.118Z,1002.24
2019-03-11T04:25:04.628Z,1002.47
2019-03-11T04:30:05.246Z,1002.71
2019-03-11T04:35:05.703Z,1002.64
2019-03-11T04:40:06.121Z,1002.43
2019-03-11T04:45:06.819Z,1002.40
2019-03-11T04:50:07.402Z,1002.46
2019-03-11T04:55:07.860Z,1002.47
2019-03-11T05:00:08.349Z,1002.49
2019-03-11T05:05:09.158Z,1002.56
2019-03-11T05:10:09.851Z,1002.51
2019-03-11T05:15:10.251Z,1002.71
2019-03-11T05:20:10.683Z,1002.71
2019-03-11T05:25:11.764Z,1002.73
2019-03-11T05:30:12.776Z,1002.86
2019-03-11T05:35:13.476Z,1002.99
2019-03-11T05:40:14.793Z,1003.02
2019-03-11T05:45:15.755Z,1002.97
2019-03-11T05:50:16.848Z,1002.93
2019-03-11T05:55:17.710Z,1003.05
2019-03-11T06:00:18.141Z,1003.03
2019-03-11T06:05:18.621Z,1002.95
2019-03-11T06:10:19.226Z,1003.04
2019-03-11T06:15:19.863Z,1003.03
2019-03-11T06:20:20.370Z,1003.00
2019-03-11T06:25:21.174Z,1003.09
2019-03-11T06:30:21.599Z,1003.10
2019-03-11T06:35:22.261Z,1003.37
2019-03-11T06:40:22.710Z,1003.35
2019-03-11T06:45:23.130Z,1003.47
2019-03-11T06:50:23.586Z,1003.56
2019-03-11T06:55:24.023Z,1003.64
2019-03-11T07:00:24.456Z,1003.75
2019-03-11T07:05:24.916Z,1003.79
2019-03-11T07:10:25.352Z,1003.82
2019-03-11T07:15:25.802Z,1003.78
2019-03-11T07:20:26.444Z,1003.80
2019-03-11T07:25:26.881Z,1003.89
2019-03-11T07:30:27.329Z,1003.92
2019-03-11T07:35:27.771Z,1003.93
2019-03-11T07:40:30.212Z,1003.91
2019-03-11T07:45:28.878Z,1003.92
2019-03-11T07:50:29.316Z,1003.90
2019-03-11T07:55:29.973Z,1004.00
2019-03-11T08:00:30.612Z,1004.33
2019-03-11T08:05:31.044Z,1004.43
2019-03-11T08:10:31.470Z,1004.55
2019-03-11T08:15:32.005Z,1004.66
2019-03-11T08:20:32.607Z,1004.68
2019-03-11T08:25:33.081Z,1004.69
2019-03-11T08:30:33.475Z,1004.79
2019-03-11T08:35:33.914Z,1004.86
2019-03-11T08:40:34.444Z,1004.86
2019-03-11T08:45:34.834Z,1004.93
2019-03-11T08:50:35.252Z,1004.98
2019-03-11T08:55:36.393Z,1005.03
2019-03-11T09:00:36.942Z,1005.13
2019-03-11T09:05:37.604Z,1005.10
2019-03-11T09:10:38.467Z,1005.21
2019-03-11T09:15:39.144Z,1005.18
2019-03-11T09:20:39.569Z,1005.28
2019-03-11T09:25:40.002Z,1005.24
2019-03-11T09:30:40.434Z,1005.33
2019-03-11T09:35:40.894Z,1005.34
2019-03-11T09:40:41.319Z,1005.34
2019-03-11T09:45:41.865Z,1005.51
2019-03-11T09:50:42.330Z,1005.51
2019-03-11T09:55:42.766Z,1005.52
2019-03-11T10:00:43.213Z,1005.56
2019-03-11T10:05:43.661Z,1005.65
2019-03-11T10:10:44.153Z,1005.59
2019-03-11T10:15:44.802Z,1005.68
2019-03-11T10:20:45.206Z,1005.70
2019-03-11T10:25:45.730Z,1005.67
2019-03-11T10:30:46.167Z,1005.87
2019-03-11T10:35:46.832Z,1005.80
2019-03-11T10:40:47.284Z,1005.81
2019-03-11T10:45:47.714Z,1005.92
2019-03-11T10:50:48.305Z,1005.92
2019-03-11T10:55:49.019Z,1006.00
2019-03-11T11:00:50.006Z,1006.03
2019-03-11T11:05:50.523Z,1006.06
2019-03-11T11:10:50.958Z,1006.01
2019-03-11T11:15:51.455Z,1006.19
2019-03-11T11:20:52.059Z,1006.21
2019-03-11T11:25:52.491Z,1006.44
2019-03-11T11:30:52.937Z,1006.48
2019-03-11T11:35:53.386Z,1006.47
2019-03-11T11:40:54.017Z,1006.54
2019-03-11T11:45:54.471Z,1006.51
2019-03-11T11:50:55.132Z,1006.54
2019-03-11T11:55:58.088Z,1006.49
2019-03-11T12:00:56.825Z,1006.65
2019-03-11T12:05:57.347Z,1006.78
2019-03-11T12:10:58.138Z,1006.88
2019-03-11T12:15:58.797Z,1006.95
2019-03-11T12:20:59.281Z,1006.93
2019-03-11T12:25:59.874Z,1006.91
2019-03-11T12:31:00.318Z,1006.93
2019-03-11T12:36:00.770Z,1006.98
2019-03-11T12:41:01.215Z,1007.06
2019-03-11T12:46:01.631Z,1007.25
2019-03-11T12:51:02.094Z,1007.36
2019-03-11T12:56:02.525Z,1007.41
2019-03-11T13:01:03.631Z,1007.55
2019-03-11T13:06:04.235Z,1007.62
2019-03-11T13:11:04.670Z,1007.69
2019-03-11T13:16:05.139Z,1007.79
2019-03-11T13:21:05.769Z,1007.83
2019-03-11T13:26:06.227Z,1007.83
2019-03-11T13:31:06.661Z,1007.83
2019-03-11T13:36:07.093Z,1008.06
2019-03-11T13:41:07.560Z,1008.03
2019-03-11T13:46:07.987Z,1008.26
2019-03-11T13:51:08.519Z,1008.21
2019-03-11T13:56:09.096Z,1008.21
2019-03-11T14:01:09.539Z,1008.28
2019-03-11T14:06:10.527Z,1008.39
2019-03-11T14:11:11.094Z,1008.49
2019-03-11T14:16:11.681Z,1008.51
2019-03-11T14:21:12.130Z,1008.67
2019-03-11T14:26:12.561Z,1008.64
2019-03-11T14:31:13.074Z,1008.68
2019-03-11T14:36:13.668Z,1008.66
2019-03-11T14:41:14.109Z,1008.68
2019-03-11T14:46:14.558Z,1008.78
2019-03-11T14:51:15.019Z,1008.79
2019-03-11T14:56:15.446Z,1008.78
2019-03-11T15:01:15.879Z,1008.74
2019-03-11T15:06:16.336Z,1008.84
2019-03-11T15:11:16.753Z,1008.91
2019-03-11T15:16:17.625Z,1008.93
2019-03-11T15:21:18.273Z,1008.93
2019-03-11T15:26:25.000Z,1009.03
2019-03-11T15:31:19.162Z,1008.98
2019-03-11T15:36:19.808Z,1009.01
2019-03-11T15:41:20.467Z,1009.12
2019-03-11T15:46:20.897Z,1009.04
2019-03-11T15:51:21.544Z,1009.12
2019-03-11T15:56:23.224Z,1009.23
2019-03-11T16:01:23.873Z,1009.31
2019-03-11T16:06:24.452Z,1009.39
2019-03-11T16:11:25.084Z,1009.45
2019-03-11T16:16:25.477Z,1009.47
2019-03-11T16:21:26.175Z,1009.61
2019-03-11T16:26:26.822Z,1009.55
2019-03-11T16:31:27.464Z,1009.67
2019-03-11T16:36:28.112Z,1009.69
2019-03-11T16:41:28.562Z,1009.63
2019-03-11T16:46:29.126Z,1009.79
2019-03-11T16:51:29.536Z,1009.94
2019-03-11T16:56:29.999Z,1010.14
2019-03-11T17:01:30.682Z,1010.23
2019-03-11T17:06:31.103Z,1010.24
2019-03-11T17:11:31.546Z,1010.35
2019-03-11T17:16:32.242Z,1010.39
2019-03-11T17:21:33.039Z,1010.52
2019-03-11T17:26:33.700Z,1010.64
2019-03-11T17:31:34.345Z,1010.76
2019-03-11T17:36:34.998Z,1010.92
2019-03-11T17:41:35.664Z,1010.99
2019-03-11T17:46:36.536Z,1011.15
2019-03-11T17:51:36.941Z,1011.14
2019-03-11T17:56:37.378Z,1011.29
2019-03-11T18:01:38.019Z,1011.34
2019-03-11T18:06:38.673Z,1011.42
2019-03-11T18:11:40.095Z,1011.49
2019-03-11T18:16:40.785Z,1011.56
2019-03-11T18:21:41.345Z,1011.79
2019-03-11T18:26:41.875Z,1011.75
2019-03-11T18:31:42.386Z,1011.89
2019-03-11T18:36:43.083Z,1011.84
2019-03-11T18:41:43.629Z,1011.97
2019-03-11T18:46:44.219Z,1012.07
2019-03-11T18:51:44.711Z,1012.02
2019-03-11T18:56:45.136Z,1012.01
2019-03-11T19:01:48.242Z,1012.24
2019-03-11T19:06:47.285Z,1012.16
2019-03-11T19:16:48.781Z,1012.42
2019-03-11T19:21:49.219Z,1012.38
2019-03-11T19:26:49.658Z,1012.47
2019-03-11T19:31:50.289Z,1012.51
2019-03-11T19:36:50.773Z,1012.61
2019-03-11T19:41:52.666Z,1012.72
2019-03-11T19:46:53.500Z,1012.76
2019-03-11T19:51:54.131Z,1012.87
2019-03-11T19:56:54.809Z,1012.82
2019-03-11T20:01:55.243Z,1012.75
2019-03-11T20:06:55.901Z,1012.76
2019-03-11T20:11:56.726Z,1012.86
2019-03-11T20:16:57.217Z,1012.87
2019-03-11T20:21:58.042Z,1012.94
2019-03-11T20:26:58.664Z,1012.99
2019-03-11T20:31:59.150Z,1013.07
2019-03-11T20:36:59.605Z,1013.02
2019-03-11T20:42:00.411Z,1013.12
2019-03-11T20:47:00.883Z,1013.11
2019-03-11T20:52:01.361Z,1013.16
2019-03-11T20:57:02.032Z,1013.08
2019-03-11T21:02:02.680Z,1013.14
2019-03-11T21:07:03.243Z,1013.17
2019-03-11T21:12:03.762Z,1013.20
2019-03-11T21:17:04.367Z,1013.28
2019-03-11T21:22:04.790Z,1013.27
2019-03-11T21:27:05.235Z,1013.29
2019-03-11T21:32:05.726Z,1013.29
2019-03-11T21:37:06.182Z,1013.38
2019-03-11T21:42:06.825Z,1013.34
2019-03-11T21:47:08.457Z,1013.33
2019-03-11T21:52:08.900Z,1013.37
2019-03-11T21:57:09.458Z,1013.32
2019-03-11T22:02:09.961Z,1013.31
2019-03-11T22:07:10.421Z,1013.28
2019-03-11T22:12:10.892Z,1013.31
2019-03-11T22:17:11.730Z,1013.29
2019-03-11T22:22:12.164Z,1013.24
2019-03-11T22:27:12.595Z,1013.28
2019-03-11T22:32:13.058Z,1013.28
2019-03-11T22:37:13.502Z,1013.37
2019-03-11T22:42:13.929Z,1013.28
2019-03-11T22:47:14.377Z,1013.44
2019-03-11T22:52:14.861Z,1013.45
2019-03-11T22:57:15.673Z,1013.47
2019-03-11T23:02:16.136Z,1013.47
2019-03-11T23:07:16.556Z,1013.45
2019-03-11T23:12:17.227Z,1013.43
2019-03-11T23:17:17.646Z,1013.28
2019-03-11T23:22:18.308Z,1013.22
2019-03-11T23:27:18.971Z,1013.13
2019-03-11T23:37:20.043Z,1013.14
2019-03-11T23:42:20.749Z,1013.12
2019-03-11T23:47:21.550Z,1013.07
2019-03-11T23:52:22.023Z,1013.10
2019-03-11T23:57:22.841Z,1013.09
